Time;durP1;ratioP1;P1;durP2;ratioP2;P2;SDS_P1;SDS_P2;PMS_P1;PMS_P2;Temp;Humidity;BMP_temperature;BMP_pressure;BME280_temperature;BME280_humidity;BME280_pressure;Samples;Min_cycle;Max_cycle;Signal;HPM_P1;HPM_P2
2023/04/27 00:00:27;;;;;;;23.27;1.55;;;;;;;23.29;47.63;99656.31;7314633;19;129195;-62
2023/04/27 00:02:53;;;;;;;25.77;1.70;;;;;;;23.25;49.85;99653.94;7311136;19;129235;-65
2023/04/27 00:05:18;;;;;;;57.20;3.47;;;;;;;23.12;50.38;99656.09;7314280;19;130440;-62
2023/04/27 00:07:44;;;;;;;48.67;3.33;;;;;;;23.16;51.97;99654.00;7314758;19;129207;-63
2023/04/27 00:10:10;;;;;;;37.00;2.35;;;;;;;23.13;51.80;99644.66;7313107;19;129419;-62
2023/04/27 00:12:35;;;;;;;15.13;1.30;;;;;;;23.19;51.91;99649.28;7311507;19;129123;-66
2023/04/27 00:15:01;;;;;;;53.63;3.00;;;;;;;23.21;52.04;99651.75;7313008;19;129362;-66
2023/04/27 00:17:26;;;;;;;41.20;2.83;;;;;;;23.21;52.37;99647.34;7312324;19;129862;-66
2023/04/27 00:19:52;;;;;;;37.00;2.30;;;;;;;23.22;52.62;99648.19;7313185;19;129400;-64
2023/04/27 00:22:17;;;;;;;67.73;3.73;;;;;;;23.24;52.48;99648.84;7311757;19;132128;-67
2023/04/27 00:24:43;;;;;;;46.20;2.75;;;;;;;23.16;52.87;99625.16;7314038;19;129074;-63
2023/04/27 00:27:08;;;;;;;24.30;1.63;;;;;;;23.25;53.10;99642.63;7313841;19;129382;-65
2023/04/27 00:29:34;;;;;;;19.03;1.50;;;;;;;23.15;50.07;99637.44;7312649;19;129684;-65
2023/04/27 00:31:59;;;;;;;25.00;1.53;;;;;;;23.00;48.82;99623.22;7311869;19;129589;-65
2023/04/27 00:34:24;;;;;;;58.87;3.27;;;;;;;23.09;48.41;99637.19;7314908;19;129313;-63
2023/04/27 00:36:50;;;;;;;45.07;2.60;;;;;;;23.17;47.48;99645.19;7312141;19;129279;-61
2023/04/27 00:39:15;;;;;;;41.10;2.37;;;;;;;23.16;47.98;99643.50;7313585;19;130474;-62
2023/04/27 00:41:41;;;;;;;44.47;2.38;;;;;;;23.19;46.94;99645.84;7313951;19;129257;-63
2023/04/27 00:44:06;;;;;;;48.63;2.73;;;;;;;23.26;48.56;99644.28;7310490;19;129483;-64
2023/04/27 00:46:33;;;;;;;42.33;2.53;;;;;;;23.11;50.83;99648.38;7313202;19;128913;-65
2023/04/27 00:49:00;;;;;;;25.58;1.73;;;;;;;23.10;50.89;99655.44;7312109;19;130031;-63
2023/04/27 00:51:27;;;;;;;;;;;;;;;23.10;51.42;99636.25;7312725;19;130080;-63
2023/04/27 00:53:52;;;;;;;18.20;1.20;;;;;;;23.16;51.80;99656.63;7315390;19;129146;-63
2023/04/27 00:56:18;;;;;;;25.00;1.60;;;;;;;23.18;51.71;99649.44;7310687;19;129153;-62
2023/04/27 00:58:44;;;;;;;22.58;1.40;;;;;;;23.17;52.17;99653.06;7314023;19;128991;-66
2023/04/27 01:01:09;;;;;;;35.97;2.10;;;;;;;23.20;52.34;99660.63;7312806;19;130343;-66
2023/04/27 01:03:35;;;;;;;37.90;2.33;;;;;;;23.19;52.41;99659.78;7311749;19;129224;-66
2023/04/27 01:06:00;;;;;;;38.07;2.40;;;;;;;23.21;52.41;99662.25;7312096;19;128855;-63
2023/04/27 01:08:27;;;;;;;33.83;2.17;;;;;;;23.19;52.90;99658.94;7312360;19;129932;-64
2023/04/27 01:10:53;;;;;;;27.48;1.67;;;;;;;23.20;52.02;99663.25;7311138;19;129191;-64
2023/04/27 01:13:21;;;;;;;38.53;2.28;;;;;;;23.06;49.43;99664.56;7309222;19;129620;-64
2023/04/27 01:15:47;;;;;;;31.97;1.93;;;;;;;23.06;48.31;99664.56;7309463;19;128845;-62
2023/04/27 01:18:12;;;;;;;30.97;1.87;;;;;;;23.02;47.72;99662.41;7312914;19;129501;-62
2023/04/27 01:20:38;;;;;;;50.77;2.90;;;;;;;23.08;47.94;99659.16;7310854;19;128981;-63
2023/04/27 01:23:03;;;;;;;33.50;1.87;;;;;;;23.10;47.60;99670.34;7310998;19;128898;-63
2023/04/27 01:25:29;;;;;;;45.13;2.83;;;;;;;23.15;47.40;99660.25;7312789;19;128925;-62
2023/04/27 01:27:54;;;;;;;39.57;2.33;;;;;;;23.16;49.11;99672.38;7319051;19;130760;-61
2023/04/27 01:30:21;;;;;;;60.17;3.33;;;;;;;23.06;50.29;99663.72;7316185;19;129231;-65
2023/04/27 01:32:49;;;;;;;22.67;1.60;;;;;;;23.04;51.21;99677.00;7319216;19;128858;-65
2023/04/27 01:35:15;;;;;;;48.70;2.75;;;;;;;23.08;51.05;99670.50;7317166;19;129086;-65
2023/04/27 01:37:41;;;;;;;38.93;2.37;;;;;;;23.10;51.45;99668.56;7321041;19;130613;-66
2023/04/27 01:40:07;;;;;;;48.22;2.67;;;;;;;23.12;52.32;99663.16;7319383;19;129089;-62
2023/04/27 01:42:33;;;;;;;25.55;1.70;;;;;;;23.04;52.12;99649.94;7317105;19;130097;-62
2023/04/27 01:44:59;;;;;;;28.00;1.70;;;;;;;23.17;51.85;99668.78;7319108;19;129153;-64
2023/04/27 01:47:25;;;;;;;34.70;2.20;;;;;;;23.16;52.12;99673.19;7318523;19;129149;-62
2023/04/27 01:49:50;;;;;;;49.03;3.13;;;;;;;23.18;52.47;99679.13;7315552;19;129964;-63
2023/04/27 01:52:15;;;;;;;40.22;2.40;;;;;;;23.19;52.24;99672.06;7317020;19;129055;-63
2023/04/27 01:54:41;;;;;;;51.47;2.60;;;;;;;23.02;48.74;99678.94;7319524;19;128979;-64
2023/04/27 01:57:06;;;;;;;19.37;1.43;;;;;;;23.01;48.63;99679.06;7316992;19;129358;-61
2023/04/27 01:59:31;;;;;;;53.80;2.97;;;;;;;22.97;47.44;99664.63;7317282;19;129256;-63
2023/04/27 02:01:56;;;;;;;30.90;1.95;;;;;;;23.09;47.22;99681.78;7317796;19;129097;-65
2023/04/27 02:04:22;;;;;;;35.83;2.17;;;;;;;23.11;47.60;99680.69;7317537;19;129370;-65
2023/04/27 02:06:47;;;;;;;38.80;2.38;;;;;;;23.13;47.39;99685.78;7318142;19;129954;-62
2023/04/27 02:09:12;;;;;;;44.70;2.60;;;;;;;23.11;49.01;99690.34;7317076;19;129021;-62
2023/04/27 02:11:38;;;;;;;34.87;2.23;;;;;;;23.02;50.05;99689.41;7317779;19;129544;-64
2023/04/27 02:14:03;;;;;;;34.90;2.03;;;;;;;23.02;50.32;99692.03;7317730;19;129072;-64
2023/04/27 02:16:29;;;;;;;45.03;2.53;;;;;;;23.06;51.74;99689.94;7316689;19;129004;-62
2023/04/27 02:18:54;;;;;;;33.70;1.98;;;;;;;23.09;51.55;99684.41;7317009;19;129178;-65
2023/04/27 02:21:20;;;;;;;33.35;1.98;;;;;;;23.04;51.78;99689.25;7316878;19;128891;-65
2023/04/27 02:23:46;;;;;;;21.47;1.27;;;;;;;23.12;52.26;99686.75;7318121;19;128955;-63
2023/04/27 02:26:19;;;;;;;41.00;2.42;;;;;;;23.11;52.75;99685.09;7314109;19;131896;-61
2023/04/27 02:28:46;;;;;;;41.83;2.53;;;;;;;23.12;51.75;99694.63;7318254;19;129109;-62
2023/04/27 02:31:12;;;;;;;25.23;1.52;;;;;;;23.14;52.06;99695.28;7315609;19;129258;-62
2023/04/27 02:33:38;;;;;;;41.47;2.60;;;;;;;23.12;52.41;99694.63;7317844;19;130171;-64
2023/04/27 02:36:04;;;;;;;38.93;2.33;;;;;;;22.92;48.56;99693.09;7315990;19;129712;-62
2023/04/27 02:38:29;;;;;;;41.20;2.37;;;;;;;22.95;48.19;99687.53;7316612;19;129998;-65
2023/04/27 02:40:54;;;;;;;28.30;1.80;;;;;;;22.88;48.04;99671.56;7316425;19;129374;-62
2023/04/27 02:43:20;;;;;;;18.17;1.15;;;;;;;23.05;47.47;99694.41;7313943;19;129595;-64
2023/04/27 02:45:46;;;;;;;47.35;2.50;;;;;;;23.06;47.59;99690.78;7315382;19;129027;-62
2023/04/27 02:48:11;;;;;;;26.27;1.73;;;;;;;23.02;47.17;99684.19;7316188;19;129568;-64
2023/04/27 02:50:41;;;;;;;28.63;1.67;;;;;;;23.04;49.64;99694.50;7314477;19;129402;-61
2023/04/27 02:53:06;;;;;;;27.67;1.77;;;;;;;22.85;50.11;99677.13;7314217;19;128874;-64
2023/04/27 02:55:32;;;;;;;71.43;4.18;;;;;;;22.98;51.07;99687.25;7313384;19;131745;-65
2023/04/27 02:57:57;;;;;;;31.13;2.00;;;;;;;23.01;51.26;99693.03;7316148;19;129812;-63
2023/04/27 03:00:22;;;;;;;38.67;2.50;;;;;;;23.04;51.57;99694.50;7314418;19;130106;-63
2023/04/27 03:02:48;;;;;;;40.50;2.50;;;;;;;22.94;51.41;99670.16;7313636;19;129351;-61
2023/04/27 03:05:13;;;;;;;64.57;3.75;;;;;;;23.06;51.94;99689.94;7315185;19;129469;-64
2023/04/27 03:07:38;;;;;;;25.33;1.77;;;;;;;23.08;51.76;99688.00;7316081;19;129066;-64
2023/04/27 03:10:04;;;;;;;11.30;0.88;;;;;;;23.08;51.51;99688.84;7314403;19;128835;-62
2023/04/27 03:12:29;;;;;;;43.13;2.53;;;;;;;23.09;52.23;99698.34;7315120;19;129737;-65
2023/04/27 03:14:55;;;;;;;54.55;3.13;;;;;;;23.08;52.07;99696.72;7315258;19;129342;-62
2023/04/27 03:17:20;;;;;;;25.02;1.77;;;;;;;22.92;48.75;99703.56;7314100;19;130074;-62
2023/04/27 03:19:47;;;;;;;24.98;1.50;;;;;;;22.90;48.14;99690.59;7315772;19;128899;-64
2023/04/27 03:22:13;;;;;;;35.38;2.13;;;;;;;22.96;48.16;99705.75;7314508;19;129458;-63
2023/04/27 03:24:38;;;;;;;47.00;2.60;;;;;;;23.00;47.68;99706.28;7315991;19;129097;-61
2023/04/27 03:27:04;;;;;;;34.60;2.05;;;;;;;22.99;47.53;99708.06;7317821;19;129486;-64
2023/04/27 03:29:29;;;;;;;31.85;1.85;;;;;;;23.05;48.52;99701.44;7314529;19;129542;-63
2023/04/27 03:31:54;;;;;;;45.92;2.75;;;;;;;22.94;49.85;99712.13;7314356;19;129145;-63
2023/04/27 03:34:20;;;;;;;19.27;1.37;;;;;;;22.93;50.75;99727.03;7316052;19;129717;-63
2023/04/27 03:36:45;;;;;;;24.75;1.52;;;;;;;22.97;51.00;99730.19;7315203;19;129378;-65
2023/04/27 03:39:11;;;;;;;26.23;1.73;;;;;;;22.86;51.49;99725.09;7315118;19;129054;-64
2023/04/27 03:41:36;;;;;;;51.47;2.93;;;;;;;22.53;51.75;99723.00;7315303;19;129250;-64
2023/04/27 03:44:02;;;;;;;26.60;1.67;;;;;;;22.61;51.70;99731.00;7315878;19;129417;-63
2023/04/27 03:46:27;;;;;;;17.63;1.38;;;;;;;22.71;51.85;99732.63;7314325;19;129212;-64
2023/04/27 03:48:53;;;;;;;25.58;1.60;;;;;;;22.79;51.42;99719.63;7313886;19;129217;-64
2023/04/27 03:51:18;;;;;;;43.10;2.45;;;;;;;22.92;51.11;99737.66;7312519;19;129222;-64
2023/04/27 03:53:43;;;;;;;25.60;1.63;;;;;;;22.98;50.99;99740.53;7315365;19;129528;-63
2023/04/27 03:56:09;;;;;;;24.25;1.50;;;;;;;23.10;51.45;99747.22;7314196;19;129633;-64
2023/04/27 03:58:34;;;;;;;34.13;2.13;;;;;;;23.17;49.52;99744.84;7316373;19;129119;-63
2023/04/27 04:01:00;;;;;;;45.90;2.67;;;;;;;23.36;49.81;99742.13;7314513;19;129123;-62
2023/04/27 04:03:25;;;;;;;30.42;1.90;;;;;;;23.34;49.90;99741.44;7312838;19;129448;-63
2023/04/27 04:05:50;;;;;;;43.63;2.43;;;;;;;23.32;50.17;99748.63;7311922;19;130034;-62
2023/04/27 04:08:16;;;;;;;34.88;2.22;;;;;;;23.40;50.35;99750.53;7312357;19;129378;-61
2023/04/27 04:10:41;;;;;;;23.93;1.47;;;;;;;23.29;50.11;99741.06;7312286;19;128866;-64
2023/04/27 04:13:06;;;;;;;57.33;3.33;;;;;;;23.33;50.41;99747.69;7311788;19;129554;-63
2023/04/27 04:15:32;;;;;;;49.80;3.13;;;;;;;23.36;50.02;99747.38;7311155;19;129764;-62
2023/04/27 04:17:57;;;;;;;40.67;2.40;;;;;;;23.33;50.86;99746.84;7313950;19;129668;-62
2023/04/27 04:20:22;;;;;;;40.07;2.50;;;;;;;23.40;50.52;99751.38;7315651;19;128883;-60
2023/04/27 04:22:48;;;;;;;27.70;1.70;;;;;;;23.43;50.36;99758.13;7314725;19;129137;-62
2023/04/27 04:25:13;;;;;;;33.20;2.10;;;;;;;23.43;50.67;99755.50;7312156;19;130336;-63
2023/04/27 04:27:39;;;;;;;65.00;3.47;;;;;;;23.43;50.95;99751.06;7312720;19;129088;-63
2023/04/27 04:30:06;;;;;;;21.52;1.45;;;;;;;23.53;50.33;99754.47;7312468;19;128991;-62
2023/04/27 04:32:32;;;;;;;41.80;2.50;;;;;;;23.63;49.40;99760.47;7311309;19;129022;-62
2023/04/27 04:35:00;;;;;;;29.02;1.92;;;;;;;23.54;49.28;99737.75;7313943;19;129787;-64
2023/04/27 04:37:26;;;;;;;56.47;3.30;;;;;;;23.56;50.06;99769.91;7313211;19;128874;-64
2023/04/27 04:39:54;;;;;;;26.97;1.53;;;;;;;23.63;49.84;99768.34;7314802;19;129462;-63
2023/04/27 04:42:20;;;;;;;27.58;1.83;;;;;;;23.63;50.00;99776.22;7310899;19;129460;-63
2023/04/27 04:44:45;;;;;;;35.10;2.17;;;;;;;23.68;49.90;99778.41;7311486;19;129508;-60
2023/04/27 04:47:11;;;;;;;38.23;2.50;;;;;;;23.75;49.16;99776.84;7313689;19;129113;-63
2023/04/27 04:49:37;;;;;;;60.03;3.50;;;;;;;23.72;50.18;99777.94;7311260;19;129057;-62
2023/04/27 04:52:05;;;;;;;45.77;2.73;;;;;;;23.51;50.05;99756.41;7311998;19;129341;-63
2023/04/27 04:54:30;;;;;;;31.02;2.05;;;;;;;23.56;50.31;99775.16;7310654;19;132488;-64
2023/04/27 04:56:57;;;;;;;40.57;2.40;;;;;;;23.51;50.03;99773.94;7311518;19;130014;-63
2023/04/27 04:59:23;;;;;;;40.03;2.50;;;;;;;23.49;50.90;99776.72;7310267;19;129423;-61
2023/04/27 05:01:48;;;;;;;19.63;1.40;;;;;;;23.66;51.01;99783.81;7311190;19;129345;-63
2023/04/27 05:04:14;;;;;;;24.42;1.50;;;;;;;23.86;48.51;99787.94;7312470;19;129554;-63
2023/04/27 05:06:39;;;;;;;48.80;2.63;;;;;;;23.83;48.42;99782.97;7311139;19;128822;-62
2023/04/27 05:09:07;;;;;;;29.27;1.73;;;;;;;23.55;50.00;99791.88;7311952;19;129085;-62
2023/04/27 05:11:33;;;;;;;40.88;2.60;;;;;;;23.34;50.44;99793.94;7305069;19;131933;-62
2023/04/27 05:13:58;;;;;;;34.30;2.30;;;;;;;23.24;50.60;99793.13;7310674;19;130926;-61
2023/04/27 05:16:25;;;;;;;52.00;2.97;;;;;;;23.20;51.58;99791.78;7311220;19;129013;-63
2023/04/27 05:18:50;;;;;;;24.52;1.50;;;;;;;23.20;50.77;99791.78;7313952;19;130138;-62
2023/04/27 05:21:19;;;;;;;54.03;3.40;;;;;;;23.24;51.57;99795.75;7311248;19;129487;-63
2023/04/27 05:23:45;;;;;;;31.42;1.95;;;;;;;23.27;51.54;99792.84;7313187;19;131346;-63
2023/04/27 05:26:14;;;;;;;48.10;2.80;;;;;;;23.36;50.99;99797.25;7312865;19;129154;-61
2023/04/27 05:28:39;;;;;;;38.33;2.45;;;;;;;23.38;51.53;99792.69;7308273;19;130001;-63
2023/04/27 05:31:05;;;;;;;35.23;2.33;;;;;;;23.42;50.54;99791.41;7307884;19;130211;-64
2023/04/27 05:33:30;;;;;;;38.63;2.37;;;;;;;23.56;51.11;99777.78;7305943;19;130394;-62
2023/04/27 05:35:56;;;;;;;48.37;2.63;;;;;;;23.74;49.94;99794.38;7312464;19;129309;-62
2023/04/27 05:38:21;;;;;;;27.98;1.83;;;;;;;23.81;50.16;99792.81;7312609;19;129212;-62
2023/04/27 05:40:52;;;;;;;28.63;1.80;;;;;;;23.67;49.81;99795.94;7310116;19;129256;-61
2023/04/27 05:43:17;;;;;;;44.55;2.75;;;;;;;23.69;49.56;99796.63;7307942;19;130028;-63
2023/04/27 05:45:43;;;;;;;41.13;2.47;;;;;;;23.68;50.04;99792.38;7310378;19;128918;-63
2023/04/27 05:48:08;;;;;;;29.40;1.80;;;;;;;23.64;49.93;99780.50;7311444;19;129374;-62
2023/04/27 05:50:33;;;;;;;34.40;2.07;;;;;;;23.61;50.50;99796.53;7309589;19;129689;-61
2023/04/27 05:52:59;;;;;;;30.27;1.80;;;;;;;23.47;50.94;99789.16;7308890;19;129058;-63
2023/04/27 05:55:25;;;;;;;49.80;3.33;;;;;;;23.40;51.11;99792.53;7309614;19;129348;-60
2023/04/27 05:57:50;;;;;;;26.53;1.70;;;;;;;23.33;50.53;99771.28;7310689;19;128802;-63
2023/04/27 06:00:16;;;;;;;28.42;1.80;;;;;;;23.26;50.88;99791.19;7310589;19;129071;-62
2023/04/27 06:02:41;;;;;;;32.77;1.93;;;;;;;23.23;51.18;99787.06;7308348;19;129098;-62
2023/04/27 06:05:07;;;;;;;30.90;1.93;;;;;;;23.67;50.45;99774.94;7311354;19;128955;-62
2023/04/27 06:07:32;;;;;;;30.73;1.93;;;;;;;23.75;49.61;99771.59;7310619;19;129522;-63
2023/04/27 06:09:58;;;;;;;18.97;1.27;;;;;;;23.91;48.67;99783.06;7309591;19;129261;-62
2023/04/27 06:12:23;;;;;;;53.40;3.03;;;;;;;23.70;49.95;99786.97;7311031;19;133123;-62
2023/04/27 06:14:48;;;;;;;36.53;2.13;;;;;;;23.47;50.03;99785.72;7316891;19;129241;-64
2023/04/27 06:17:14;;;;;;;7.43;0.70;;;;;;;23.43;50.88;99785.19;7319764;19;130676;-63
2023/04/27 06:19:39;;;;;;;27.67;1.70;;;;;;;23.37;50.73;99785.75;7317580;19;129273;-60
2023/04/27 06:22:05;;;;;;;45.30;2.50;;;;;;;23.44;50.52;99792.06;7316315;19;129668;-64
2023/04/27 06:24:30;;;;;;;18.42;1.27;;;;;;;23.46;50.91;99789.31;7318462;19;128933;-61
2023/04/27 06:26:56;;;;;;;42.67;2.53;;;;;;;23.35;50.75;99763.28;7316709;19;130130;-62
2023/04/27 06:29:21;;;;;;;30.30;1.83;;;;;;;23.52;50.20;99786.13;7317404;19;129461;-62
2023/04/27 06:31:47;;;;;;;41.77;2.37;;;;;;;23.58;50.65;99790.75;7314993;19;129733;-62
2023/04/27 06:34:12;;;;;;;27.53;1.77;;;;;;;23.59;50.26;99788.00;7318042;19;128838;-63
2023/04/27 06:36:37;;;;;;;25.43;1.70;;;;;;;23.72;49.72;99798.94;7316929;19;129287;-61
2023/04/27 06:39:02;;;;;;;32.43;1.80;;;;;;;23.75;49.76;99801.28;7317107;19;129457;-62
2023/04/27 06:41:28;;;;;;;46.17;2.80;;;;;;;23.77;50.47;99801.97;7317912;19;129545;-63
2023/04/27 06:43:53;;;;;;;28.60;1.70;;;;;;;23.67;50.18;99800.38;7317167;19;129458;-62
2023/04/27 06:46:19;;;;;;;24.15;1.63;;;;;;;23.61;50.03;99796.53;7316389;19;128981;-63
2023/04/27 06:48:45;;;;;;;39.42;2.28;;;;;;;23.58;50.10;99798.63;7317087;19;129005;-62
2023/04/27 06:51:11;;;;;;;33.67;2.10;;;;;;;23.46;50.58;99798.00;7314296;19;129564;-63
2023/04/27 06:53:37;;;;;;;28.17;1.85;;;;;;;23.46;51.05;99802.44;7314260;19;128976;-63
2023/04/27 06:56:03;;;;;;;31.20;2.00;;;;;;;23.36;50.73;99810.34;7315413;19;129005;-62
2023/04/27 06:58:28;;;;;;;41.60;2.45;;;;;;;23.22;51.03;99801.13;7316292;19;128933;-62
2023/04/27 07:00:54;;;;;;;30.60;1.75;;;;;;;23.27;51.29;99813.84;7314636;19;130348;-64
2023/04/27 07:03:20;;;;;;;27.17;1.87;;;;;;;23.20;51.67;99818.00;7314122;19;128903;-62
2023/04/27 07:05:46;;;;;;;;;;;;;;;23.10;51.77;99812.81;7315993;19;129282;-63
2023/04/27 07:08:11;;;;;;;55.07;2.93;;;;;;;23.35;50.98;99811.34;7315992;19;129003;-62
2023/04/27 07:10:37;;;;;;;42.45;2.45;;;;;;;23.72;49.94;99814.69;7314719;19;129064;-61
2023/04/27 07:13:02;;;;;;;25.93;1.50;;;;;;;23.87;49.04;99821.09;7316931;19;128690;-60
2023/04/27 07:15:30;;;;;;;57.35;3.60;;;;;;;23.89;47.79;99815.69;7315395;19;129445;-63
2023/04/27 07:17:55;;;;;;;47.20;2.65;;;;;;;23.62;49.88;99813.94;7316124;19;129171;-62
2023/04/27 07:20:21;;;;;;;26.43;1.57;;;;;;;23.46;50.98;99819.00;7315806;19;130324;-62
2023/04/27 07:22:46;;;;;;;22.67;1.43;;;;;;;23.46;50.73;99824.25;7312096;19;129137;-61
2023/04/27 07:25:12;;;;;;;19.77;1.60;;;;;;;23.48;51.08;99813.59;7314572;19;129322;-65
2023/04/27 07:27:38;;;;;;;51.97;2.88;;;;;;;23.51;50.47;99810.69;7315341;19;129830;-61
2023/04/27 07:30:07;;;;;;;22.95;1.45;;;;;;;23.55;50.72;99806.81;7315832;19;130309;-64
2023/04/27 07:32:32;;;;;;;31.67;1.95;;;;;;;23.57;50.51;99810.91;7313965;19;129386;-64
2023/04/27 07:34:57;;;;;;;26.20;1.60;;;;;;;23.60;50.62;99810.63;7315370;19;129453;-64
2023/04/27 07:37:23;;;;;;;49.83;2.73;;;;;;;23.55;50.67;99812.88;7315212;19;129567;-65
2023/04/27 07:39:50;;;;;;;30.97;1.97;;;;;;;23.54;50.85;99815.63;7315560;19;129782;-61
2023/04/27 07:42:17;;;;;;;26.02;1.60;;;;;;;23.70;49.49;99816.66;7315538;19;129317;-61
2023/04/27 07:44:43;;;;;;;28.65;1.52;;;;;;;23.89;49.08;99820.94;7314760;19;128990;-60
2023/04/27 07:47:08;;;;;;;35.93;2.17;;;;;;;23.97;49.51;99823.66;7315021;19;129514;-62
2023/04/27 07:49:36;;;;;;;29.67;1.92;;;;;;;23.65;50.18;99818.06;7315040;19;129109;-62
2023/04/27 07:52:01;;;;;;;18.20;1.17;;;;;;;23.44;50.93;99815.69;7311497;19;129685;-61
2023/04/27 07:54:27;;;;;;;45.33;2.87;;;;;;;23.21;51.45;99804.75;7313989;19;128956;-61
2023/04/27 07:56:52;;;;;;;37.30;2.10;;;;;;;23.23;51.80;99822.94;7314385;19;129089;-62
2023/04/27 07:59:18;;;;;;;22.97;1.43;;;;;;;23.16;51.46;99829.75;7314612;19;129189;-63
2023/04/27 08:01:44;;;;;;;27.97;1.73;;;;;;;23.07;51.96;99828.00;7311634;19;129390;-63
2023/04/27 08:04:11;;;;;;;38.17;2.20;;;;;;;23.01;51.98;99833.78;7314160;19;129378;-60
2023/04/27 08:06:36;;;;;;;48.13;2.67;;;;;;;22.96;52.09;99834.22;7313540;19;129607;-63
2023/04/27 08:09:03;;;;;;;33.90;2.13;;;;;;;22.89;52.90;99845.44;7316038;19;129172;-61
2023/04/27 08:11:28;;;;;;;37.20;2.40;;;;;;;22.82;53.37;99845.19;7312726;19;129350;-62
2023/04/27 08:13:53;;;;;;;25.75;1.63;;;;;;;23.17;50.91;99813.03;7313999;19;129202;-62
2023/04/27 08:16:19;;;;;;;33.20;1.90;;;;;;;23.40;49.64;99840.59;7312478;19;131713;-63
2023/04/27 08:18:44;;;;;;;24.90;1.38;;;;;;;23.58;49.43;99838.84;7314169;19;129099;-61
2023/04/27 08:21:10;;;;;;;25.35;1.55;;;;;;;23.61;48.20;99827.22;7314101;19;129333;-60
2023/04/27 08:23:36;;;;;;;39.30;2.40;;;;;;;23.42;50.57;99833.38;7310771;19;132731;-64
2023/04/27 08:26:02;;;;;;;32.67;2.05;;;;;;;23.24;50.66;99840.34;7313663;19;129332;-60
2023/04/27 08:28:27;;;;;;;31.10;1.87;;;;;;;23.17;51.41;99839.28;7313347;19;129528;-63
2023/04/27 08:30:53;;;;;;;25.80;1.53;;;;;;;23.12;51.08;99825.78;7312596;19;129293;-62
2023/04/27 08:33:18;;;;;;;38.87;2.20;;;;;;;23.24;51.01;99837.72;7311557;19;129416;-62
2023/04/27 08:35:44;;;;;;;26.27;1.60;;;;;;;23.32;51.19;99837.03;7312594;19;129111;-61
2023/04/27 08:38:09;;;;;;;30.90;2.00;;;;;;;23.34;51.78;99832.47;7313445;19;130090;-62
2023/04/27 08:40:34;;;;;;;31.17;1.93;;;;;;;23.37;51.00;99830.34;7315150;19;128994;-64
2023/04/27 08:43:00;;;;;;;51.38;2.70;;;;;;;23.35;51.75;99829.72;7311488;19;130417;-64
2023/04/27 08:45:27;;;;;;;52.03;3.20;;;;;;;23.31;51.75;99825.72;7313482;19;129353;-63
2023/04/27 08:47:52;;;;;;;25.50;1.55;;;;;;;23.64;50.67;99827.75;7313904;19;129736;-61
2023/04/27 08:50:18;;;;;;;25.67;1.50;;;;;;;23.83;49.33;99838.13;7311689;19;128864;-64
2023/04/27 08:52:47;;;;;;;46.10;2.63;;;;;;;23.84;48.31;99834.53;7311951;19;129564;-64
2023/04/27 08:55:13;;;;;;;14.05;1.15;;;;;;;23.72;50.04;99833.09;7313999;19;129604;-64
2023/04/27 08:57:39;;;;;;;25.43;1.53;;;;;;;23.39;50.46;99831.06;7312477;19;129086;-63
2023/04/27 09:00:12;;;;;;;33.43;1.83;;;;;;;23.24;51.16;99824.59;7311387;19;129729;-64
2023/04/27 09:02:45;;;;;;;47.75;2.75;;;;;;;23.10;52.00;99827.69;7311406;19;129175;-61
2023/04/27 09:05:21;;;;;;;41.67;2.45;;;;;;;23.01;51.73;99820.69;7316047;19;129772;-63
2023/04/27 09:07:59;;;;;;;24.40;1.52;;;;;;;22.83;52.23;99804.03;7313424;19;130169;-62
2023/04/27 09:10:27;;;;;;;26.33;1.58;;;;;;;22.86;52.59;99820.31;7310959;19;129790;-63
2023/04/27 09:13:02;;;;;;;22.80;1.40;;;;;;;22.84;53.08;99818.81;7309002;19;129032;-61
2023/04/27 09:15:28;;;;;;;55.63;3.55;;;;;;;22.83;52.55;99828.47;7311136;19;129070;-65
2023/04/27 09:17:56;;;;;;;46.83;2.77;;;;;;;22.83;53.33;99817.16;7311747;19;129538;-65
2023/04/27 09:20:23;;;;;;;25.08;1.60;;;;;;;23.27;50.84;99815.66;7312763;19;129099;-61
2023/04/27 09:22:53;;;;;;;10.93;0.97;;;;;;;23.47;49.20;99822.47;7308791;19;129063;-63
2023/04/27 09:25:30;;;;;;;30.63;1.95;;;;;;;23.71;49.48;99818.31;7311866;19;129806;-63
2023/04/27 09:27:57;;;;;;;41.33;2.55;;;;;;;23.58;50.24;99828.34;7309236;19;129880;-64
2023/04/27 09:30:23;;;;;;;;;;;;;;;23.41;50.92;99818.63;7309892;19;128972;-64
2023/04/27 09:32:53;;;;;;;26.15;1.55;;;;;;;23.41;50.81;99815.16;7307752;19;130990;-64
2023/04/27 09:35:28;;;;;;;58.40;3.65;;;;;;;23.44;50.50;99812.25;7307823;19;133443;-62
2023/04/27 09:37:54;;;;;;;37.03;2.22;;;;;;;23.44;50.71;99820.94;7306296;19;132802;-63
2023/04/27 09:40:25;;;;;;;44.55;2.50;;;;;;;23.43;50.59;99803.56;7309548;19;129260;-63
2023/04/27 09:42:51;;;;;;;29.38;1.75;;;;;;;23.39;51.14;99814.50;7308772;19;129381;-65
2023/04/27 09:45:18;;;;;;;60.03;3.75;;;;;;;23.42;51.41;99812.38;7309611;19;129430;-64
2023/04/27 09:47:44;;;;;;;28.10;1.80;;;;;;;23.31;51.20;99809.97;7315636;19;129915;-64
2023/04/27 09:50:12;;;;;;;49.35;2.67;;;;;;;23.23;51.51;99800.19;7316931;19;129812;-63
2023/04/27 09:52:37;;;;;;;41.33;2.38;;;;;;;23.64;50.33;99805.91;7314480;19;129768;-61
2023/04/27 09:55:08;;;;;;;39.00;2.40;;;;;;;23.76;48.47;99789.81;7316793;19;129637;-65
2023/04/27 09:57:45;;;;;;;42.97;2.67;;;;;;;23.76;48.49;99787.19;7315482;19;129691;-63
2023/04/27 10:00:23;;;;;;;35.70;2.15;;;;;;;23.56;49.47;99797.94;7317076;19;129570;-64
2023/04/27 10:03:12;;;;;;;31.50;1.85;;;;;;;23.31;51.29;99806.50;7313080;19;128880;-61
2023/04/27 10:06:19;;;;;;;46.45;2.83;;;;;;;23.00;51.82;99779.69;7313697;19;131821;-63
2023/04/27 10:08:45;;;;;;;27.75;1.80;;;;;;;23.01;51.91;99797.06;7313857;19;132122;-61
2023/04/27 10:11:16;;;;;;;42.83;2.53;;;;;;;22.90;52.58;99795.47;7314434;19;129071;-61
2023/04/27 10:13:52;;;;;;;47.55;2.67;;;;;;;22.84;52.34;99800.47;7313118;19;129214;-64
2023/04/27 10:16:18;;;;;;;19.42;1.20;;;;;;;22.77;53.45;99794.97;7315548;19;128991;-63
2023/04/27 10:18:54;;;;;;;23.73;1.53;;;;;;;22.70;53.50;99790.41;7314213;19;129597;-61
2023/04/27 10:21:19;;;;;;;30.48;1.80;;;;;;;22.73;53.13;99798.00;7315309;19;129442;-62
2023/04/27 10:23:50;;;;;;;36.00;2.27;;;;;;;22.85;53.07;99807.34;7313812;19;130238;-62
2023/04/27 10:26:26;;;;;;;23.95;1.40;;;;;;;23.17;49.19;99797.31;7315044;19;130170;-61
2023/04/27 10:29:06;;;;;;;35.97;2.13;;;;;;;23.50;48.93;99799.38;7314419;19;129117;-61
2023/04/27 10:31:32;;;;;;;52.20;3.08;;;;;;;23.71;48.36;99805.19;7313184;19;129441;-61
2023/04/27 10:34:14;;;;;;;29.27;1.88;;;;;;;23.54;50.28;99795.47;7315169;19;129329;-64
2023/04/27 10:36:40;;;;;;;19.95;1.27;;;;;;;23.30;50.67;99792.59;7314795;19;130640;-64
2023/04/27 10:39:25;;;;;;;76.03;4.47;;;;;;;23.27;51.04;99794.66;7313337;19;129272;-61
2023/04/27 10:41:55;;;;;;;46.33;2.53;;;;;;;23.22;50.92;99792.47;7315612;19;129553;-64
2023/04/27 10:44:26;;;;;;;40.60;2.17;;;;;;;23.30;51.52;99797.84;7313367;19;129429;-64
2023/04/27 10:46:53;;;;;;;28.60;1.80;;;;;;;23.29;51.23;99795.34;7314014;19;129008;-63
2023/04/27 10:49:18;;;;;;;56.83;3.20;;;;;;;23.29;51.18;99800.59;7313484;19;129703;-61
2023/04/27 10:51:44;;;;;;;35.93;2.10;;;;;;;23.26;51.10;99801.66;7312600;19;129639;-61
2023/04/27 10:56:37;;;;;;;32.58;2.05;;;;;;;23.20;51.85;99807.50;7313452;19;129523;-39
2023/04/27 10:59:06;;;;;;;78.67;4.40;;;;;;;23.51;49.45;99798.41;7312893;19;129260;-39
2023/04/27 11:01:32;;;;;;;52.47;3.08;;;;;;;23.61;48.74;99793.09;7310292;19;129462;-39
2023/04/27 11:03:58;;;;;;;57.43;3.07;;;;;;;23.80;49.09;99799.03;7315600;19;129060;-39
2023/04/27 11:06:25;;;;;;;36.80;2.00;;;;;;;23.69;49.49;99804.50;7313015;19;130245;-39
2023/04/27 11:08:50;;;;;;;41.28;2.33;;;;;;;23.25;51.07;99784.28;7314317;19;130394;-39
2023/04/27 11:11:17;;;;;;;16.90;1.08;;;;;;;23.11;52.13;99808.34;7311171;19;129075;-39
2023/04/27 11:13:43;;;;;;;45.20;2.35;;;;;;;22.99;51.90;99799.84;7314495;19;128947;-39
2023/04/27 11:16:10;;;;;;;37.45;2.08;;;;;;;22.92;52.41;99797.94;7313886;19;130619;-39